Time;durP1;ratioP1;P1;durP2;ratioP2;P2;SDS_P1;SDS_P2;PMS_P1;PMS_P2;Temp;Humidity;BMP_temperature;BMP_pressure;BME280_temperature;BME280_humidity;BME280_pressure;Samples;Min_cycle;Max_cycle;Signal;HPM_P1;HPM_P2
2020/12/13 00:00:29;;;;;;;41.13;23.50;;;8.20;99.90;;;;;;6232920;28;20512;-75
2020/12/13 00:03:31;;;;;;;43.80;24.02;;;8.10;99.90;;;;;;6232802;28;20057;-75
2020/12/13 00:06:32;;;;;;;36.35;22.05;;;8.20;99.90;;;;;;6234007;28;20188;-75
2020/12/13 00:09:34;;;;;;;42.08;23.70;;;8.10;99.90;;;;;;6233174;28;20124;-74
2020/12/13 00:12:36;;;;;;;39.13;23.42;;;8.20;99.90;;;;;;6233763;28;20057;-75
2020/12/13 00:15:39;;;;;;;41.15;22.58;;;8.20;99.90;;;;;;6231755;28;20049;-75
2020/12/13 00:18:41;;;;;;;40.17;22.35;;;8.20;99.90;;;;;;6234216;28;20051;-75
2020/12/13 00:21:43;;;;;;;44.58;22.83;;;8.20;99.90;;;;;;6231266;28;20053;-75
2020/12/13 00:24:44;;;;;;;37.65;21.25;;;8.20;99.90;;;;;;6232187;28;20041;-76
2020/12/13 00:27:45;;;;;;;41.72;22.90;;;8.20;99.90;;;;;;6232946;28;20045;-75
2020/12/13 00:30:48;;;;;;;34.70;21.35;;;8.20;99.90;;;;;;6234293;28;20046;-75
2020/12/13 00:33:49;;;;;;;34.85;20.48;;;8.10;99.90;;;;;;6232224;28;20134;-75
2020/12/13 00:36:51;;;;;;;35.25;20.98;;;8.20;99.90;;;;;;6232410;28;20049;-75
2020/12/13 00:39:53;;;;;;;42.42;22.25;;;8.20;99.90;;;;;;6232824;28;20050;-75
2020/12/13 00:42:54;;;;;;;37.30;22.13;;;8.10;99.90;;;;;;6231517;28;20111;-75
2020/12/13 00:45:56;;;;;;;36.70;22.08;;;8.20;99.90;;;;;;6236500;28;20183;-75
2020/12/13 00:48:57;;;;;;;42.08;24.00;;;8.20;99.90;;;;;;6231488;28;20521;-75
2020/12/13 00:52:01;;;;;;;40.78;25.13;;;8.20;99.90;;;;;;6230810;28;20054;-75
2020/12/13 00:55:02;;;;;;;39.03;23.30;;;8.10;99.90;;;;;;6233323;28;20049;-75
2020/12/13 00:58:03;;;;;;;44.30;22.17;;;8.10;99.90;;;;;;6234384;28;20637;-75
2020/12/13 01:01:05;;;;;;;39.10;20.75;;;8.10;99.90;;;;;;6231428;28;20391;-75
2020/12/13 01:04:07;;;;;;;41.30;22.13;;;8.10;99.90;;;;;;6231809;28;20045;-76
2020/12/13 01:07:08;;;;;;;39.80;23.27;;;8.10;99.90;;;;;;6232395;28;20194;-75
2020/12/13 01:10:10;;;;;;;49.70;24.85;;;8.10;99.90;;;;;;6229536;28;20438;-74
2020/12/13 01:13:11;;;;;;;45.10;23.08;;;8.10;99.90;;;;;;6233049;28;20111;-75
2020/12/13 01:16:15;;;;;;;41.13;23.38;;;8.10;99.90;;;;;;6232520;28;20181;-74
2020/12/13 01:19:17;;;;;;;45.40;24.15;;;8.10;99.90;;;;;;6230908;28;20045;-75
2020/12/13 01:22:18;;;;;;;41.78;23.70;;;8.10;99.90;;;;;;6233670;28;20049;-75
2020/12/13 01:25:19;;;;;;;46.42;22.42;;;8.10;99.90;;;;;;6230836;28;20114;-75
2020/12/13 01:28:21;;;;;;;36.40;23.38;;;8.10;99.90;;;;;;6233076;28;20623;-74
2020/12/13 01:31:24;;;;;;;47.67;25.23;;;8.10;99.90;;;;;;6231364;28;20563;-74
2020/12/13 01:34:25;;;;;;;43.92;26.63;;;8.10;99.90;;;;;;6233113;28;20087;-75
2020/12/13 01:37:26;;;;;;;42.42;24.42;;;8.10;99.90;;;;;;6231769;28;20041;-75
2020/12/13 01:40:28;;;;;;;47.55;25.85;;;8.10;99.90;;;;;;6231658;28;20048;-75
2020/12/13 01:43:29;;;;;;;60.35;26.17;;;8.10;99.90;;;;;;6231365;28;20050;-75
2020/12/13 01:46:32;;;;;;;51.72;27.63;;;8.10;99.90;;;;;;6235361;28;20055;-75
2020/12/13 01:49:36;;;;;;;43.90;25.00;;;8.10;99.90;;;;;;6236669;28;20073;-75
2020/12/13 01:52:42;;;;;;;48.80;23.67;;;8.10;99.90;;;;;;6234615;28;20037;-75
2020/12/13 01:55:45;;;;;;;48.47;25.80;;;8.10;99.90;;;;;;6235609;28;20129;-75
2020/12/13 01:58:51;;;;;;;43.47;26.42;;;8.10;99.90;;;;;;6236663;28;20132;-75
2020/12/13 02:02:02;;;;;;;42.67;24.20;;;8.10;99.90;;;;;;6235451;28;20052;-74
2020/12/13 02:05:05;;;;;;;45.72;25.25;;;8.10;99.90;;;;;;6237458;28;20045;-75
2020/12/13 02:08:06;;;;;;;48.85;25.70;;;8.10;99.90;;;;;;6235930;28;20038;-74
2020/12/13 02:11:09;;;;;;;41.72;23.17;;;8.10;99.90;;;;;;6235719;28;20049;-75
2020/12/13 02:14:11;;;;;;;46.90;23.90;;;8.10;99.90;;;;;;6236408;28;20050;-75
2020/12/13 02:17:13;;;;;;;49.83;21.63;;;8.10;99.90;;;;;;6237484;28;20053;-74
2020/12/13 02:20:15;;;;;;;53.10;27.55;;;8.10;99.90;;;;;;6235321;28;20053;-74
2020/12/13 02:23:17;;;;;;;48.80;24.90;;;8.00;99.90;;;;;;6236509;28;20050;-75
2020/12/13 02:26:19;;;;;;;44.22;23.35;;;8.00;99.90;;;;;;6235114;28;20096;-75
2020/12/13 02:29:20;;;;;;;40.67;22.77;;;8.10;99.90;;;;;;6236931;28;20128;-75
2020/12/13 02:32:21;;;;;;;42.35;23.23;;;8.00;99.90;;;;;;6236543;28;20041;-75
2020/12/13 02:35:24;;;;;;;45.67;22.98;;;8.00;99.90;;;;;;6234799;28;20133;-75
2020/12/13 02:38:27;;;;;;;34.75;21.63;;;8.00;99.90;;;;;;6235846;28;20045;-75
2020/12/13 02:41:29;;;;;;;41.50;22.75;;;8.00;99.90;;;;;;6236838;28;20048;-75
2020/12/13 02:44:30;;;;;;;37.63;21.48;;;8.00;99.90;;;;;;6234050;28;20503;-75
2020/12/13 02:47:31;;;;;;;42.75;21.77;;;8.00;99.90;;;;;;6235274;28;20050;-74
2020/12/13 02:50:33;;;;;;;36.42;22.63;;;8.00;99.90;;;;;;6234393;28;20042;-75
2020/12/13 02:53:35;;;;;;;39.17;22.05;;;8.00;99.90;;;;;;6236033;28;20125;-75
2020/12/13 02:56:40;;;;;;;46.03;24.58;;;8.00;99.90;;;;;;6232684;28;20096;-75
2020/12/13 02:59:41;;;;;;;44.75;23.45;;;8.00;99.90;;;;;;6233322;28;20049;-75
2020/12/13 03:02:43;;;;;;;41.33;23.58;;;8.00;99.90;;;;;;6233907;28;20196;-75
2020/12/13 03:05:44;;;;;;;43.42;22.02;;;8.00;99.90;;;;;;6234641;28;20045;-75
2020/12/13 03:08:46;;;;;;;40.53;22.02;;;8.00;99.90;;;;;;6236703;28;20180;-75
2020/12/13 03:11:47;;;;;;;46.67;22.33;;;8.10;99.90;;;;;;6234504;28;20116;-74
2020/12/13 03:14:49;;;;;;;39.63;21.25;;;8.00;99.90;;;;;;6234354;28;20514;-74
2020/12/13 03:17:50;;;;;;;46.40;23.98;;;8.00;99.90;;;;;;6233858;28;20056;-74
2020/12/13 03:20:51;;;;;;;40.88;23.92;;;8.00;99.90;;;;;;6234425;28;20130;-75
2020/12/13 03:23:53;;;;;;;50.60;24.75;;;8.00;99.90;;;;;;6232368;28;20210;-75
2020/12/13 03:26:54;;;;;;;44.53;24.33;;;8.00;99.90;;;;;;6233553;28;20048;-75
2020/12/13 03:29:56;;;;;;;48.22;22.92;;;8.00;99.90;;;;;;6236363;28;20045;-74
2020/12/13 03:32:57;;;;;;;43.67;23.98;;;8.00;99.90;;;;;;6232285;28;20120;-75
2020/12/13 03:35:58;;;;;;;46.08;24.02;;;8.00;99.90;;;;;;6232278;28;20140;-74
2020/12/13 03:39:00;;;;;;;47.33;23.70;;;8.00;99.90;;;;;;6232675;28;20083;-75
2020/12/13 03:42:02;;;;;;;47.72;24.10;;;8.00;99.90;;;;;;6235010;28;20132;-75
2020/12/13 03:45:03;;;;;;;42.25;22.85;;;8.00;99.90;;;;;;6234374;28;20183;-75
2020/12/13 03:48:05;;;;;;;45.40;23.58;;;8.10;99.90;;;;;;6233277;28;20042;-75
2020/12/13 03:51:06;;;;;;;43.40;22.23;;;8.10;99.90;;;;;;6233268;28;20049;-75
2020/12/13 03:54:08;;;;;;;46.78;21.83;;;8.10;99.90;;;;;;6233676;28;20698;-75
2020/12/13 03:57:10;;;;;;;44.92;22.40;;;8.10;99.90;;;;;;6232556;28;20477;-75
2020/12/13 04:00:11;;;;;;;46.63;23.02;;;8.10;99.90;;;;;;6233463;28;20045;-75
2020/12/13 04:03:12;;;;;;;42.97;23.95;;;8.10;99.90;;;;;;6232249;28;20052;-75
2020/12/13 04:06:13;;;;;;;44.75;23.20;;;8.10;99.90;;;;;;6235151;28;20184;-73
2020/12/13 04:09:15;;;;;;;45.97;22.23;;;8.10;99.90;;;;;;6233569;28;20053;-75
2020/12/13 04:12:17;;;;;;;44.08;22.63;;;8.10;99.90;;;;;;6230956;28;20120;-75
2020/12/13 04:15:18;;;;;;;54.05;25.60;;;8.00;99.90;;;;;;6235583;28;20053;-75
2020/12/13 04:18:20;;;;;;;38.42;20.05;;;8.10;99.90;;;;;;6234603;28;20045;-75
2020/12/13 04:21:21;;;;;;;42.15;20.92;;;8.10;99.90;;;;;;6231449;28;20522;-75
2020/12/13 04:24:23;;;;;;;50.95;22.65;;;8.10;99.90;;;;;;6233860;28;20549;-75
2020/12/13 04:27:25;;;;;;;45.40;22.23;;;8.10;99.90;;;;;;6233077;28;20423;-75
2020/12/13 04:30:26;;;;;;;46.17;22.90;;;8.00;99.90;;;;;;6231344;28;20042;-75
2020/12/13 04:33:27;;;;;;;37.78;19.95;;;8.00;99.90;;;;;;6232706;28;20073;-75
2020/12/13 04:36:29;;;;;;;37.10;21.77;;;8.10;99.90;;;;;;6232558;28;20128;-75
2020/12/13 04:39:31;;;;;;;39.47;20.35;;;8.00;99.90;;;;;;6233190;28;20128;-74
2020/12/13 04:42:35;;;;;;;46.05;23.98;;;8.00;99.90;;;;;;6232865;28;20041;-74
2020/12/13 04:45:36;;;;;;;41.70;20.15;;;8.00;99.90;;;;;;6236111;28;20091;-75
2020/12/13 04:48:38;;;;;;;41.75;21.40;;;8.00;99.90;;;;;;6230641;28;20192;-74
2020/12/13 04:51:42;;;;;;;44.42;20.63;;;8.00;99.90;;;;;;6230669;28;20041;-75
2020/12/13 04:54:49;;;;;;;46.33;20.92;;;8.00;99.90;;;;;;6233786;28;20049;-75
2020/12/13 04:57:50;;;;;;;45.28;21.30;;;8.00;99.90;;;;;;6230298;28;20045;-75
2020/12/13 05:00:54;;;;;;;38.53;19.48;;;8.00;99.90;;;;;;6232821;28;20563;-74
2020/12/13 05:03:56;;;;;;;46.92;21.08;;;8.00;99.90;;;;;;6231514;28;20056;-74
2020/12/13 05:06:59;;;;;;;49.33;20.30;;;8.00;99.90;;;;;;6233399;28;20045;-75
2020/12/13 05:10:03;;;;;;;34.55;17.92;;;8.00;99.90;;;;;;6230936;28;20140;-75
2020/12/13 05:13:05;;;;;;;36.50;18.00;;;8.10;99.90;;;;;;6231207;28;20208;-75
2020/12/13 05:16:07;;;;;;;39.80;17.55;;;8.00;99.90;;;;;;6232314;28;20126;-75
2020/12/13 05:19:08;;;;;;;37.35;16.42;;;8.10;99.90;;;;;;6232654;28;20185;-75
2020/12/13 05:22:10;;;;;;;37.00;16.73;;;8.10;99.90;;;;;;6235785;28;20096;-74
2020/12/13 05:25:13;;;;;;;38.65;15.68;;;8.10;99.90;;;;;;6236407;28;20048;-74
2020/12/13 05:28:17;;;;;;;37.63;18.65;;;8.00;99.90;;;;;;6237721;28;20045;-75
2020/12/13 05:31:20;;;;;;;35.65;17.10;;;8.00;99.90;;;;;;6235258;28;20045;-75
2020/12/13 05:34:23;;;;;;;42.55;17.58;;;8.00;99.90;;;;;;6236009;28;20538;-75
2020/12/13 05:37:29;;;;;;;37.53;17.60;;;8.00;99.90;;;;;;6240452;28;20163;-75
2020/12/13 05:40:32;;;;;;;35.90;16.48;;;8.10;99.90;;;;;;6238023;28;20445;-74
2020/12/13 05:43:37;;;;;;;36.08;17.92;;;8.10;99.90;;;;;;6236699;28;20474;-75
2020/12/13 05:46:57;;;;;;;43.03;16.15;;;8.10;99.90;;;;;;6237976;28;20049;-74
2020/12/13 05:50:25;;;;;;;31.05;14.32;;;8.10;99.90;;;;;;6235382;28;20053;-74
2020/12/13 05:53:27;;;;;;;32.00;15.15;;;8.10;99.90;;;;;;6234816;28;20041;-74
2020/12/13 05:56:29;;;;;;;34.97;14.48;;;8.00;99.90;;;;;;6236856;28;20126;-75
2020/12/13 05:59:32;;;;;;;37.92;16.48;;;8.10;99.90;;;;;;6238524;28;20148;-75
2020/12/13 06:02:33;;;;;;;38.10;17.25;;;8.10;99.90;;;;;;6239753;28;20050;-74
2020/12/13 06:05:36;;;;;;;37.40;16.33;;;8.00;99.90;;;;;;6235521;28;20485;-75
2020/12/13 06:09:08;;;;;;;36.67;15.95;;;8.00;99.90;;;;;;6237793;28;20046;-75
2020/12/13 06:12:12;;;;;;;42.45;20.60;;;8.00;99.90;;;;;;6227985;28;20128;-75
2020/12/13 06:15:14;;;;;;;36.55;19.20;;;8.00;99.90;;;;;;6237092;28;20172;-75
2020/12/13 06:18:16;;;;;;;45.10;25.63;;;8.00;99.90;;;;;;6235191;28;20473;-74
2020/12/13 06:21:19;;;;;;;49.90;28.45;;;8.10;99.90;;;;;;6236834;28;20470;-74
2020/12/13 06:24:20;;;;;;;39.15;19.90;;;8.10;99.90;;;;;;6234930;28;20050;-74
2020/12/13 06:27:23;;;;;;;51.20;26.00;;;8.00;99.90;;;;;;6236568;28;20140;-74
2020/12/13 06:30:27;;;;;;;46.58;26.55;;;8.00;99.90;;;;;;6234601;28;20037;-75
2020/12/13 06:33:28;;;;;;;41.50;21.10;;;8.00;99.90;;;;;;6234578;28;20152;-75
2020/12/13 06:36:33;;;;;;;38.88;20.02;;;8.00;99.90;;;;;;6235010;28;20127;-75
2020/12/13 06:39:34;;;;;;;45.97;20.42;;;8.00;99.90;;;;;;6236054;28;20046;-75
2020/12/13 06:42:39;;;;;;;44.50;19.02;;;8.00;99.90;;;;;;6237177;28;20091;-75
2020/12/13 06:45:41;;;;;;;35.88;19.27;;;8.00;99.90;;;;;;6234250;28;20400;-75
2020/12/13 06:48:43;;;;;;;35.05;18.77;;;8.00;99.90;;;;;;6235752;28;20037;-75
2020/12/13 06:51:46;;;;;;;35.40;19.77;;;8.00;99.90;;;;;;6234474;28;20050;-75
2020/12/13 06:54:47;;;;;;;60.28;32.05;;;8.00;99.90;;;;;;6235005;28;20092;-75
2020/12/13 06:57:51;;;;;;;29.95;17.13;;;8.00;99.90;;;;;;6236248;28;20053;-75
2020/12/13 07:00:52;;;;;;;31.55;17.55;;;7.90;99.90;;;;;;6233772;28;20041;-75
2020/12/13 07:03:55;;;;;;;36.15;18.92;;;8.00;99.90;;;;;;6229577;28;20045;-75
2020/12/13 07:06:59;;;;;;;34.50;17.92;;;7.90;99.90;;;;;;6260029;28;20055;-74
2020/12/13 07:10:02;;;;;;;30.75;15.68;;;7.90;99.90;;;;;;6267794;28;20417;-76
2020/12/13 07:13:05;;;;;;;30.05;15.63;;;7.90;99.90;;;;;;6269167;28;20045;-75
2020/12/13 07:16:09;;;;;;;29.50;16.02;;;7.90;99.90;;;;;;6259507;28;20049;-75
2020/12/13 07:19:12;;;;;;;25.17;15.20;;;7.80;99.90;;;;;;6255909;28;20115;-75
2020/12/13 07:22:15;;;;;;;29.88;14.43;;;7.80;99.90;;;;;;6265856;28;20044;-75
2020/12/13 07:25:16;;;;;;;26.85;14.20;;;7.80;99.90;;;;;;6268131;28;20055;-75
2020/12/13 07:28:18;;;;;;;34.17;16.15;;;7.80;99.90;;;;;;6270168;28;20044;-75
2020/12/13 07:31:23;;;;;;;21.65;13.38;;;7.80;99.90;;;;;;6267421;28;20045;-75
2020/12/13 07:34:24;;;;;;;25.17;12.88;;;7.80;99.90;;;;;;6272223;28;20084;-75
2020/12/13 07:37:27;;;;;;;28.00;14.95;;;7.80;99.90;;;;;;6270554;28;20128;-75
2020/12/13 07:40:29;;;;;;;22.35;14.48;;;7.70;99.90;;;;;;6268136;28;20082;-75
2020/12/13 07:43:31;;;;;;;27.00;13.27;;;7.70;99.90;;;;;;6269520;28;20223;-76
2020/12/13 07:46:34;;;;;;;23.83;13.23;;;7.70;99.90;;;;;;6270618;28;20053;-75
2020/12/13 07:49:35;;;;;;;24.25;13.77;;;7.70;99.90;;;;;;6270455;28;20416;-76
2020/12/13 07:52:44;;;;;;;24.40;12.30;;;7.70;99.90;;;;;;6268377;28;20041;-75
2020/12/13 07:55:45;;;;;;;21.85;12.57;;;7.70;99.90;;;;;;6269844;28;20041;-75
2020/12/13 07:58:47;;;;;;;20.00;11.68;;;7.70;99.90;;;;;;6262869;28;20049;-75
2020/12/13 08:01:50;;;;;;;24.63;14.60;;;7.70;99.90;;;;;;6260102;28;20041;-75
2020/12/13 08:04:52;;;;;;;21.25;11.23;;;7.70;99.90;;;;;;6270793;28;20049;-75
2020/12/13 08:08:00;;;;;;;15.05;11.00;;;7.70;99.90;;;;;;6267350;28;20120;-75
2020/12/13 08:11:12;;;;;;;27.80;11.70;;;7.80;99.90;;;;;;6270930;28;20041;-75
2020/12/13 08:14:14;;;;;;;20.65;12.02;;;7.80;99.90;;;;;;6268514;28;20461;-75
2020/12/13 08:17:17;;;;;;;16.55;11.43;;;7.80;99.90;;;;;;6265881;28;20041;-74
2020/12/13 08:20:20;;;;;;;17.85;10.80;;;7.90;99.90;;;;;;6266175;28;20057;-74
2020/12/13 08:23:24;;;;;;;19.63;10.48;;;7.90;99.90;;;;;;6266850;28;20562;-75
2020/12/13 08:26:26;;;;;;;19.88;11.15;;;7.90;99.90;;;;;;6271669;28;20048;-75
2020/12/13 08:29:31;;;;;;;16.60;11.23;;;7.90;99.90;;;;;;6270182;28;20045;-75
2020/12/13 08:32:34;;;;;;;21.48;10.13;;;7.90;99.90;;;;;;6265979;28;20057;-75
2020/12/13 08:35:36;;;;;;;22.77;12.15;;;8.00;99.90;;;;;;6264076;28;20400;-75
2020/12/13 08:38:37;;;;;;;19.50;10.63;;;8.00;99.90;;;;;;6269354;28;20048;-75
2020/12/13 08:41:45;;;;;;;16.75;11.60;;;8.00;99.90;;;;;;6269034;28;20464;-75
2020/12/13 08:44:47;;;;;;;20.38;11.20;;;8.00;99.90;;;;;;6269579;28;20486;-75
2020/12/13 08:47:49;;;;;;;26.25;11.18;;;8.10;99.90;;;;;;6265970;28;20086;-75
2020/12/13 08:51:04;;;;;;;17.75;11.60;;;8.10;99.90;;;;;;6263147;28;20067;-74
2020/12/13 08:54:05;;;;;;;17.92;11.10;;;8.10;99.90;;;;;;6269283;28;20155;-76
2020/12/13 08:57:07;;;;;;;28.60;11.95;;;8.10;99.90;;;;;;6268328;28;20052;-75
2020/12/13 09:00:11;;;;;;;20.70;9.95;;;8.10;99.90;;;;;;6268119;28;20037;-75
2020/12/13 09:03:12;;;;;;;18.73;10.98;;;8.20;99.90;;;;;;6267225;28;20099;-75
2020/12/13 09:06:25;;;;;;;14.98;9.45;;;8.10;99.90;;;;;;6264204;28;20087;-75
2020/12/13 09:09:31;;;;;;;13.82;8.27;;;8.20;99.90;;;;;;6264824;28;20122;-75
2020/12/13 09:12:34;;;;;;;13.23;10.00;;;8.20;99.90;;;;;;6264712;28;20049;-75
2020/12/13 09:15:36;;;;;;;18.92;9.60;;;8.20;99.90;;;;;;6265641;28;20496;-75
2020/12/13 09:18:38;;;;;;;21.92;9.02;;;8.20;99.90;;;;;;6266763;28;20578;-75
2020/12/13 09:22:00;;;;;;;17.80;10.00;;;8.30;99.90;;;;;;6268770;28;20127;-75
2020/12/13 09:25:02;;;;;;;19.20;9.70;;;8.40;99.90;;;;;;6262701;28;20561;-76
2020/12/13 09:28:04;;;;;;;13.27;11.35;;;8.30;99.90;;;;;;6266054;28;20383;-75
2020/12/13 09:31:09;;;;;;;15.27;9.32;;;8.30;99.90;;;;;;6264402;28;20049;-75
2020/12/13 09:34:11;;;;;;;13.63;9.13;;;;;;;;;;6269844;28;20477;-75
2020/12/13 09:37:14;;;;;;;18.08;9.52;;;8.40;99.90;;;;;;6268325;28;20176;-75
2020/12/13 09:40:15;;;;;;;28.85;17.00;;;8.60;99.90;;;;;;6263091;28;20592;-75
2020/12/13 09:43:16;;;;;;;17.35;9.43;;;8.70;99.90;;;;;;6268273;28;20047;-75
2020/12/13 09:46:19;;;;;;;99.88;42.00;;;9.20;99.90;;;;;;6265844;28;20061;-74
2020/12/13 09:49:20;;;;;;;297.80;131.43;;;9.30;99.90;;;;;;6265530;28;20053;-75
2020/12/13 09:52:22;;;;;;;183.55;95.07;;;9.40;98.80;;;;;;6268803;28;20068;-75
2020/12/13 09:55:24;;;;;;;335.75;188.15;;;9.50;97.60;;;;;;6268116;28;20517;-75
2020/12/13 09:58:25;;;;;;;28.17;20.27;;;9.50;97.30;;;;;;6265799;28;20052;-75
2020/12/13 10:01:27;;;;;;;14.02;9.45;;;9.70;97.10;;;;;;6267374;28;20147;-75
2020/12/13 10:04:29;;;;;;;11.27;7.13;;;10.00;96.80;;;;;;6267756;28;20136;-75
2020/12/13 10:08:55;;;;;;;17.02;8.85;;;10.10;96.00;;;;;;6271855;28;20520;-75
2020/12/13 10:10:54;;;;;;;17.73;7.07;;;10.80;98.20;;;;;;6267939;28;20099;-75
2020/12/13 10:13:56;;;;;;;10.32;7.13;;;11.10;96.50;;;;;;6272068;28;20067;-75
2020/12/13 10:16:58;;;;;;;9.95;6.10;;;11.30;94.50;;;;;;6269454;28;20045;-75
2020/12/13 10:20:00;;;;;;;6.57;5.70;;;11.30;93.80;;;;;;6272651;28;20132;-75
2020/12/13 10:23:01;;;;;;;7.70;4.78;;;11.30;94.50;;;;;;6269238;28;20618;-75
2020/12/13 10:26:03;;;;;;;8.25;4.60;;;11.50;93.10;;;;;;6270381;28;20422;-75
2020/12/13 10:29:05;;;;;;;9.00;3.92;;;11.80;91.90;;;;;;6269671;28;20041;-75
2020/12/13 10:32:07;;;;;;;7.60;4.00;;;12.00;90.20;;;;;;6265198;28;20532;-75
2020/12/13 10:35:08;;;;;;;7.43;3.58;;;12.40;88.40;;;;;;6271979;28;20068;-75
2020/12/13 10:38:10;;;;;;;4.97;3.85;;;12.80;84.90;;;;;;6266179;28;20131;-75
2020/12/13 10:41:11;;;;;;;9.38;4.88;;;12.80;82.00;;;;;;6264178;28;20564;-76
2020/12/13 10:44:14;;;;;;;7.38;3.17;;;12.70;82.50;;;;;;6266774;28;20041;-75
2020/12/13 10:47:16;;;;;;;5.80;3.97;;;12.50;80.40;;;;;;6271002;28;20040;-75
2020/12/13 10:50:19;;;;;;;7.03;3.60;;;12.60;82.20;;;;;;6271763;28;20140;-75
2020/12/13 10:53:21;;;;;;;5.18;3.53;;;12.80;80.90;;;;;;6270797;28;20086;-75
2020/12/13 10:56:22;;;;;;;10.35;5.18;;;12.90;81.00;;;;;;6270709;28;20049;-75
2020/12/13 10:59:24;;;;;;;5.82;3.65;;;12.90;79.40;;;;;;6270894;28;20097;-75
2020/12/13 11:02:26;;;;;;;8.02;3.70;;;;;;;;;;6271438;28;20415;-75
2020/12/13 11:05:28;;;;;;;7.85;3.28;;;13.10;77.80;;;;;;6268857;28;20072;-75
2020/12/13 11:08:30;;;;;;;8.13;3.55;;;13.20;78.60;;;;;;6268959;28;20056;-75
2020/12/13 11:11:31;;;;;;;6.70;3.85;;;13.30;76.70;;;;;;6269344;28;20060;-75
2020/12/13 11:14:32;;;;;;;7.53;3.88;;;13.10;79.30;;;;;;6269573;28;20536;-75
2020/12/13 11:17:35;;;;;;;7.28;3.33;;;13.00;79.00;;;;;;6266702;28;20057;-75
2020/12/13 11:20:36;;;;;;;7.90;2.78;;;13.30;79.70;;;;;;6270710;28;20070;-75
2020/12/13 11:23:38;;;;;;;6.95;3.17;;;13.50;76.90;;;;;;6270178;28;20049;-75
2020/12/13 11:26:39;;;;;;;22.63;16.15;;;13.60;74.90;;;;;;6268389;28;20402;-75
2020/12/13 11:29:40;;;;;;;32.28;28.48;;;13.60;74.60;;;;;;6252741;28;20037;-75
2020/12/13 11:32:44;;;;;;;8.85;6.10;;;13.40;74.80;;;;;;6252398;28;20041;-75
2020/12/13 11:35:45;;;;;;;39.42;19.60;;;13.30;74.90;;;;;;6250488;28;20049;-75
2020/12/13 11:38:47;;;;;;;49.20;26.17;;;13.40;74.60;;;;;;6253804;28;20124;-74
2020/12/13 11:41:48;;;;;;;31.27;15.95;;;13.40;73.10;;;;;;6254400;28;20041;-75
2020/12/13 11:44:49;;;;;;;103.32;64.95;;;13.20;73.30;;;;;;6252221;28;20148;-75
2020/12/13 11:47:51;;;;;;;26.83;17.75;;;13.00;74.00;;;;;;6256401;28;20120;-75
2020/12/13 11:50:53;;;;;;;19.23;7.43;;;12.80;74.10;;;;;;6267229;28;20044;-75
2020/12/13 11:53:54;;;;;;;5.78;4.18;;;12.50;74.90;;;;;;6270189;28;20410;-76
2020/12/13 11:56:57;;;;;;;10.98;9.98;;;;;;;;;;6269551;28;20037;-75
2020/12/13 11:59:58;;;;;;;7.05;6.10;;;12.10;76.60;;;;;;6267455;28;20052;-75
2020/12/13 12:03:00;;;;;;;4.43;3.83;;;12.10;77.30;;;;;;6268897;28;20183;-75
2020/12/13 12:06:01;;;;;;;10.35;4.97;;;12.00;76.30;;;;;;6270473;28;20045;-75
2020/12/13 12:09:03;;;;;;;5.07;4.30;;;11.70;78.00;;;;;;6266472;28;20275;-76
2020/12/13 12:12:04;;;;;;;6.00;4.10;;;11.40;79.00;;;;;;6269433;28;20040;-75
2020/12/13 12:15:06;;;;;;;5.95;3.65;;;11.20;79.40;;;;;;6265228;28;20057;-75
2020/12/13 12:18:08;;;;;;;5.28;4.25;;;11.00;78.80;;;;;;6264989;28;20108;-76
2020/12/13 12:21:15;;;;;;;5.03;3.55;;;11.30;78.40;;;;;;6265924;28;20156;-75
2020/12/13 12:24:20;;;;;;;12.10;9.35;;;11.60;75.30;;;;;;6268916;28;20049;-75
2020/12/13 12:27:21;;;;;;;8.18;6.78;;;11.90;75.50;;;;;;6264140;28;20518;-75
2020/12/13 12:30:23;;;;;;;5.55;3.78;;;12.10;74.60;;;;;;6268939;28;20159;-75
2020/12/13 12:33:26;;;;;;;17.45;8.05;;;12.20;73.50;;;;;;6268026;28;20132;-75
2020/12/13 12:36:28;;;;;;;6.57;2.45;;;12.30;76.60;;;;;;6256895;28;20649;-77
2020/12/13 12:39:30;;;;;;;6.20;3.17;;;12.40;74.60;;;;;;6267351;28;20425;-76
2020/12/13 12:42:34;;;;;;;7.43;2.45;;;12.50;74.00;;;;;;6268895;28;20179;-76
2020/12/13 12:45:35;;;;;;;4.80;3.42;;;12.40;73.00;;;;;;6268558;28;20041;-76
2020/12/13 12:48:38;;;;;;;4.72;2.42;;;12.30;73.40;;;;;;6268409;28;20044;-75
2020/12/13 12:51:39;;;;;;;7.30;2.47;;;12.40;74.40;;;;;;6268990;28;20136;-76
2020/12/13 12:54:43;;;;;;;4.40;2.47;;;12.20;73.20;;;;;;6268388;28;20155;-74
2020/12/13 12:57:45;;;;;;;4.70;2.97;;;12.10;73.70;;;;;;6269153;28;20048;-74
2020/12/13 13:00:50;;;;;;;3.95;3.65;;;11.90;73.50;;;;;;6269008;28;20045;-76
2020/12/13 13:03:59;;;;;;;5.28;2.78;;;11.60;74.40;;;;;;6265777;28;20075;-76
2020/12/13 13:07:07;;;;;;;8.75;3.78;;;11.40;75.90;;;;;;6268945;28;20044;-76
2020/12/13 13:10:12;;;;;;;5.30;2.80;;;11.20;77.10;;;;;;6270049;28;20097;-76
2020/12/13 13:13:13;;;;;;;8.68;4.20;;;11.00;78.10;;;;;;6266523;28;20132;-77
2020/12/13 13:16:16;;;;;;;23.83;15.57;;;10.80;79.70;;;;;;6263031;28;20049;-76
2020/12/13 13:19:20;;;;;;;61.95;39.13;;;10.70;79.70;;;;;;6263389;28;20045;-76
2020/12/13 13:22:21;;;;;;;35.83;30.10;;;10.60;80.30;;;;;;6268703;28;20127;-76
2020/12/13 13:25:23;;;;;;;18.92;15.48;;;10.70;80.70;;;;;;6269139;28;20596;-76
2020/12/13 13:28:24;;;;;;;8.50;5.63;;;10.80;80.80;;;;;;6268505;28;20084;-76
2020/12/13 13:31:26;;;;;;;9.57;3.28;;;10.90;80.60;;;;;;6265948;28;20049;-76
2020/12/13 13:34:30;;;;;;;11.90;5.63;;;10.90;79.70;;;;;;6266440;28;20053;-76
2020/12/13 13:37:32;;;;;;;8.52;5.45;;;10.80;80.40;;;;;;6268409;28;20048;-76
2020/12/13 13:40:34;;;;;;;9.20;4.13;;;10.70;81.10;;;;;;6269719;28;20045;-76
2020/12/13 13:43:40;;;;;;;7.32;4.13;;;10.50;81.70;;;;;;6273112;28;20248;-77
2020/12/13 13:46:49;;;;;;;3.53;2.30;;;10.40;80.00;;;;;;6271156;28;20072;-76
2020/12/13 13:50:00;;;;;;;6.10;3.05;;;10.10;81.30;;;;;;6270617;28;20060;-76
2020/12/13 13:53:02;;;;;;;3.35;2.15;;;9.90;82.50;;;;;;6272932;28;20045;-76
2020/12/13 13:56:08;;;;;;;4.68;2.33;;;9.80;83.00;;;;;;6273152;28;20087;-76
2020/12/13 13:59:14;;;;;;;3.17;1.63;;;9.70;82.80;;;;;;6272616;28;20049;-76
2020/12/13 14:02:16;;;;;;;4.05;2.28;;;9.70;83.30;;;;;;6273242;28;20052;-76
2020/12/13 14:05:19;;;;;;;10.60;3.03;;;9.60;84.00;;;;;;6267579;28;20124;-76
2020/12/13 14:08:41;;;;;;;3.88;3.35;;;9.50;84.00;;;;;;6269689;28;20048;-76
2020/12/13 14:11:42;;;;;;;6.68;3.15;;;9.40;85.00;;;;;;6269690;28;20045;-75
2020/12/13 14:14:44;;;;;;;4.13;2.33;;;9.30;85.80;;;;;;6269476;28;20095;-75
2020/12/13 14:17:45;;;;;;;4.13;1.95;;;9.10;86.60;;;;;;6269941;28;20128;-75
2020/12/13 14:20:48;;;;;;;4.35;2.45;;;9.00;86.80;;;;;;6267555;28;20450;-75
2020/12/13 14:23:49;;;;;;;14.55;4.40;;;9.00;87.10;;;;;;6267303;28;20036;-76
2020/12/13 14:26:50;;;;;;;1.75;1.58;;;8.90;87.20;;;;;;6272363;28;20056;-75
2020/12/13 14:29:52;;;;;;;6.82;3.53;;;8.90;87.60;;;;;;6273289;28;20064;-75
2020/12/13 14:32:53;;;;;;;6.75;2.72;;;8.80;88.70;;;;;;6269133;28;20051;-75
2020/12/13 14:35:55;;;;;;;11.35;2.55;;;8.60;89.20;;;;;;6267362;28;20132;-76
2020/12/13 14:38:59;;;;;;;6.72;2.88;;;8.60;89.40;;;;;;6266955;28;20190;-76
2020/12/13 14:42:00;;;;;;;6.13;2.60;;;8.50;89.60;;;;;;6261314;28;20508;-76
2020/12/13 14:45:01;;;;;;;9.43;2.97;;;8.50;89.40;;;;;;6269796;28;20046;-76
2020/12/13 14:48:05;;;;;;;6.65;2.33;;;8.50;89.60;;;;;;6264283;28;20052;-75
2020/12/13 14:51:08;;;;;;;4.30;2.38;;;8.60;90.20;;;;;;6265745;28;20146;-77
2020/12/13 14:54:09;;;;;;;4.05;2.22;;;8.50;90.30;;;;;;6268693;28;20090;-76
2020/12/13 14:57:11;;;;;;;5.60;2.72;;;8.50;90.60;;;;;;6268837;28;20048;-76
2020/12/13 15:00:12;;;;;;;5.82;2.55;;;8.50;90.70;;;;;;6268368;28;20045;-76
2020/12/13 15:03:13;;;;;;;2.08;1.67;;;8.50;90.90;;;;;;6270906;28;20040;-75
2020/12/13 15:06:22;;;;;;;3.50;1.83;;;8.40;91.00;;;;;;6268663;28;20080;-76
2020/12/13 15:09:24;;;;;;;4.90;1.70;;;8.40;91.20;;;;;;6271317;28;20037;-76
2020/12/13 15:12:26;;;;;;;6.35;2.30;;;8.40;91.50;;;;;;6269690;28;20052;-76
2020/12/13 15:15:32;;;;;;;5.90;2.15;;;8.40;91.50;;;;;;6269450;28;20048;-76
2020/12/13 15:18:35;;;;;;;6.72;2.60;;;8.40;91.60;;;;;;6268482;28;20186;-78
2020/12/13 15:21:40;;;;;;;5.18;2.20;;;8.30;91.50;;;;;;6265826;28;20045;-77
2020/12/13 15:24:41;;;;;;;20.45;3.08;;;8.30;91.70;;;;;;6263751;28;20132;-77
2020/12/13 15:27:42;;;;;;;8.75;3.28;;;8.30;91.50;;;;;;6260842;28;20986;-77
2020/12/13 15:30:44;;;;;;;3.60;2.30;;;8.30;91.70;;;;;;6263767;28;20060;-77
2020/12/13 15:33:45;;;;;;;4.95;2.22;;;8.30;91.80;;;;;;6267721;28;20593;-77
2020/12/13 15:36:48;;;;;;;3.30;2.13;;;8.20;92.00;;;;;;6265426;28;20124;-77
2020/12/13 15:39:49;;;;;;;4.78;3.97;;;8.20;92.20;;;;;;6267413;28;20120;-77
2020/12/13 15:42:50;;;;;;;6.40;2.63;;;8.20;92.20;;;;;;6265207;28;20056;-77